Terminal Aerodrome Forecast
Issued by NWS

Home | Current Version | Previous Version | Text Only | Print | Product List | Glossary On
Versions: 1 2 3 4 5 6 7 8 9 10 11 12 13 14 15 16 17 18 19 20
000
FTUS45 KABQ 182352 RRA
TAFAEG
TAF
KAEG 182352Z 1900/1924 32005KT P6SM VCSH BKN035 OVC060
     FM190300 28010KT P6SM SCT030 BKN050
     FM191000 VRB05KT P6SM SCT050
     FM191800 24006KT P6SM SCT120
     FM192000 27012G19KT P6SM BKN100=

USA.gov is the U.S. government's official web portal to all federal, state and local government web resources and services.